sensor_id;sensor_type;location;lat;lon;timestamp;P1;durP1;ratioP1;P2;durP2;ratioP2
68250;SDS011;55066;51.560;4.642;2023-06-10T00:01:39;11.73;;;8.25;;
68250;SDS011;55066;51.560;4.642;2023-06-10T00:04:05;11.13;;;8.38;;
68250;SDS011;55066;51.560;4.642;2023-06-10T00:06:31;12.07;;;7.83;;
68250;SDS011;55066;51.560;4.642;2023-06-10T00:09:00;13.32;;;8.60;;
68250;SDS011;55066;51.560;4.642;2023-06-10T00:11:29;17.80;;;10.88;;
68250;SDS011;55066;51.560;4.642;2023-06-10T00:13:55;19.65;;;12.45;;
68250;SDS011;55066;51.560;4.642;2023-06-10T00:16:20;20.10;;;11.17;;
68250;SDS011;55066;51.560;4.642;2023-06-10T00:18:46;16.10;;;10.33;;
68250;SDS011;55066;51.560;4.642;2023-06-10T00:21:12;12.93;;;9.35;;
68250;SDS011;55066;51.560;4.642;2023-06-10T00:23:38;11.83;;;8.67;;
68250;SDS011;55066;51.560;4.642;2023-06-10T00:26:03;20.65;;;12.43;;
68250;SDS011;55066;51.560;4.642;2023-06-10T00:28:31;16.23;;;11.05;;
68250;SDS011;55066;51.560;4.642;2023-06-10T00:30:56;21.13;;;13.47;;
68250;SDS011;55066;51.560;4.642;2023-06-10T00:33:22;18.13;;;11.43;;
68250;SDS011;55066;51.560;4.642;2023-06-10T00:35:48;16.77;;;9.73;;
68250;SDS011;55066;51.560;4.642;2023-06-10T00:38:13;14.10;;;9.77;;
68250;SDS011;55066;51.560;4.642;2023-06-10T00:40:41;12.52;;;9.05;;
68250;SDS011;55066;51.560;4.642;2023-06-10T00:43:07;13.33;;;9.33;;
68250;SDS011;55066;51.560;4.642;2023-06-10T00:45:34;15.45;;;9.15;;
68250;SDS011;55066;51.560;4.642;2023-06-10T00:48:00;17.35;;;9.60;;
68250;SDS011;55066;51.560;4.642;2023-06-10T00:50:30;12.33;;;9.13;;
68250;SDS011;55066;51.560;4.642;2023-06-10T00:52:56;11.85;;;8.43;;
68250;SDS011;55066;51.560;4.642;2023-06-10T00:55:22;14.75;;;8.88;;
68250;SDS011;55066;51.560;4.642;2023-06-10T00:57:49;13.63;;;8.55;;
68250;SDS011;55066;51.560;4.642;2023-06-10T01:00:16;12.60;;;8.93;;
68250;SDS011;55066;51.560;4.642;2023-06-10T01:02:42;14.40;;;8.47;;
68250;SDS011;55066;51.560;4.642;2023-06-10T01:05:08;17.10;;;10.80;;
68250;SDS011;55066;51.560;4.642;2023-06-10T01:07:37;14.70;;;8.63;;
68250;SDS011;55066;51.560;4.642;2023-06-10T01:12:39;15.43;;;8.95;;
68250;SDS011;55066;51.560;4.642;2023-06-10T01:15:13;20.15;;;12.63;;
68250;SDS011;55066;51.560;4.642;2023-06-10T01:18:04;13.80;;;9.98;;
68250;SDS011;55066;51.560;4.642;2023-06-10T01:20:34;19.23;;;11.97;;
68250;SDS011;55066;51.560;4.642;2023-06-10T01:23:02;20.95;;;13.80;;
68250;SDS011;55066;51.560;4.642;2023-06-10T01:25:29;20.23;;;12.02;;
68250;SDS011;55066;51.560;4.642;2023-06-10T01:30:59;17.65;;;9.40;;
68250;SDS011;55066;51.560;4.642;2023-06-10T01:33:34;14.63;;;9.30;;
68250;SDS011;55066;51.560;4.642;2023-06-10T01:36:04;20.65;;;11.63;;
68250;SDS011;55066;51.560;4.642;2023-06-10T01:38:33;19.73;;;14.18;;
68250;SDS011;55066;51.560;4.642;2023-06-10T01:41:04;17.25;;;12.80;;
68250;SDS011;55066;51.560;4.642;2023-06-10T01:43:34;15.00;;;9.85;;
68250;SDS011;55066;51.560;4.642;2023-06-10T01:46:02;18.57;;;11.50;;
68250;SDS011;55066;51.560;4.642;2023-06-10T01:48:28;22.95;;;16.55;;
68250;SDS011;55066;51.560;4.642;2023-06-10T01:50:54;26.00;;;15.93;;
68250;SDS011;55066;51.560;4.642;2023-06-10T01:53:22;26.70;;;16.95;;
68250;SDS011;55066;51.560;4.642;2023-06-10T01:55:48;19.83;;;14.02;;
68250;SDS011;55066;51.560;4.642;2023-06-10T01:58:15;19.08;;;12.73;;
68250;SDS011;55066;51.560;4.642;2023-06-10T02:00:42;24.88;;;17.65;;
68250;SDS011;55066;51.560;4.642;2023-06-10T02:03:08;26.07;;;15.93;;
68250;SDS011;55066;51.560;4.642;2023-06-10T02:05:33;16.43;;;10.20;;
68250;SDS011;55066;51.560;4.642;2023-06-10T02:07:58;15.27;;;9.17;;
68250;SDS011;55066;51.560;4.642;2023-06-10T02:10:24;16.23;;;9.98;;
68250;SDS011;55066;51.560;4.642;2023-06-10T02:12:50;13.97;;;9.23;;
68250;SDS011;55066;51.560;4.642;2023-06-10T02:15:15;15.07;;;9.73;;
68250;SDS011;55066;51.560;4.642;2023-06-10T02:17:40;15.55;;;9.75;;
68250;SDS011;55066;51.560;4.642;2023-06-10T02:20:06;14.87;;;9.67;;
68250;SDS011;55066;51.560;4.642;2023-06-10T02:22:33;13.73;;;9.33;;
68250;SDS011;55066;51.560;4.642;2023-06-10T02:24:59;12.73;;;8.52;;
68250;SDS011;55066;51.560;4.642;2023-06-10T02:27:24;12.57;;;8.17;;
68250;SDS011;55066;51.560;4.642;2023-06-10T02:29:50;15.45;;;8.38;;
68250;SDS011;55066;51.560;4.642;2023-06-10T02:32:15;13.63;;;8.97;;
68250;SDS011;55066;51.560;4.642;2023-06-10T02:34:41;13.40;;;8.68;;
68250;SDS011;55066;51.560;4.642;2023-06-10T02:37:09;12.43;;;8.30;;
68250;SDS011;55066;51.560;4.642;2023-06-10T02:39:37;13.00;;;8.20;;
68250;SDS011;55066;51.560;4.642;2023-06-10T02:42:06;12.60;;;8.48;;
68250;SDS011;55066;51.560;4.642;2023-06-10T02:44:32;13.88;;;8.57;;
68250;SDS011;55066;51.560;4.642;2023-06-10T02:46:58;12.93;;;8.80;;
68250;SDS011;55066;51.560;4.642;2023-06-10T02:49:24;14.82;;;8.82;;
68250;SDS011;55066;51.560;4.642;2023-06-10T02:51:50;15.10;;;8.97;;
68250;SDS011;55066;51.560;4.642;2023-06-10T02:54:19;13.35;;;9.05;;
68250;SDS011;55066;51.560;4.642;2023-06-10T02:56:48;13.65;;;8.77;;
68250;SDS011;55066;51.560;4.642;2023-06-10T02:59:19;13.48;;;8.95;;
68250;SDS011;55066;51.560;4.642;2023-06-10T03:01:45;14.57;;;8.83;;
68250;SDS011;55066;51.560;4.642;2023-06-10T03:04:12;14.63;;;9.10;;
68250;SDS011;55066;51.560;4.642;2023-06-10T03:06:42;13.07;;;8.93;;
68250;SDS011;55066;51.560;4.642;2023-06-10T03:09:22;13.70;;;8.80;;
68250;SDS011;55066;51.560;4.642;2023-06-10T03:11:53;15.40;;;8.47;;
68250;SDS011;55066;51.560;4.642;2023-06-10T03:14:19;13.23;;;9.10;;
68250;SDS011;55066;51.560;4.642;2023-06-10T03:16:45;13.27;;;8.67;;
68250;SDS011;55066;51.560;4.642;2023-06-10T03:19:11;14.70;;;9.07;;
68250;SDS011;55066;51.560;4.642;2023-06-10T03:21:39;16.10;;;9.60;;
68250;SDS011;55066;51.560;4.642;2023-06-10T03:24:15;16.52;;;8.80;;
68250;SDS011;55066;51.560;4.642;2023-06-10T03:26:42;14.70;;;9.13;;
68250;SDS011;55066;51.560;4.642;2023-06-10T03:29:07;13.03;;;9.03;;
68250;SDS011;55066;51.560;4.642;2023-06-10T03:31:33;13.20;;;8.47;;
68250;SDS011;55066;51.560;4.642;2023-06-10T03:34:01;13.45;;;8.52;;
68250;SDS011;55066;51.560;4.642;2023-06-10T03:36:28;14.48;;;9.15;;
68250;SDS011;55066;51.560;4.642;2023-06-10T03:38:56;20.95;;;9.68;;
68250;SDS011;55066;51.560;4.642;2023-06-10T03:41:22;14.37;;;9.40;;
68250;SDS011;55066;51.560;4.642;2023-06-10T03:43:49;14.98;;;9.02;;
68250;SDS011;55066;51.560;4.642;2023-06-10T03:46:15;15.63;;;9.07;;
68250;SDS011;55066;51.560;4.642;2023-06-10T03:48:42;13.20;;;8.82;;
68250;SDS011;55066;51.560;4.642;2023-06-10T03:51:08;15.97;;;9.17;;
68250;SDS011;55066;51.560;4.642;2023-06-10T03:53:34;13.30;;;9.15;;
68250;SDS011;55066;51.560;4.642;2023-06-10T03:55:59;17.30;;;9.80;;
68250;SDS011;55066;51.560;4.642;2023-06-10T03:58:26;13.02;;;8.95;;
68250;SDS011;55066;51.560;4.642;2023-06-10T04:00:52;15.63;;;9.23;;
68250;SDS011;55066;51.560;4.642;2023-06-10T04:03:22;13.82;;;8.73;;
68250;SDS011;55066;51.560;4.642;2023-06-10T04:05:51;14.15;;;9.20;;
68250;SDS011;55066;51.560;4.642;2023-06-10T04:08:17;13.20;;;9.20;;
68250;SDS011;55066;51.560;4.642;2023-06-10T04:10:43;16.60;;;9.07;;
68250;SDS011;55066;51.560;4.642;2023-06-10T04:13:08;15.37;;;9.30;;
68250;SDS011;55066;51.560;4.642;2023-06-10T04:15:39;16.77;;;9.02;;
68250;SDS011;55066;51.560;4.642;2023-06-10T04:18:09;16.52;;;9.13;;
68250;SDS011;55066;51.560;4.642;2023-06-10T04:20:34;16.47;;;9.37;;
68250;SDS011;55066;51.560;4.642;2023-06-10T04:23:00;15.50;;;9.17;;
68250;SDS011;55066;51.560;4.642;2023-06-10T04:25:26;15.93;;;9.63;;
68250;SDS011;55066;51.560;4.642;2023-06-10T04:27:52;15.40;;;9.45;;
68250;SDS011;55066;51.560;4.642;2023-06-10T04:30:19;15.63;;;9.30;;
68250;SDS011;55066;51.560;4.642;2023-06-10T04:32:45;15.23;;;9.77;;
68250;SDS011;55066;51.560;4.642;2023-06-10T04:35:15;14.52;;;9.68;;
68250;SDS011;55066;51.560;4.642;2023-06-10T04:37:43;14.98;;;9.50;;
68250;SDS011;55066;51.560;4.642;2023-06-10T04:40:10;18.42;;;10.20;;
68250;SDS011;55066;51.560;4.642;2023-06-10T04:42:36;16.40;;;10.33;;
68250;SDS011;55066;51.560;4.642;2023-06-10T04:45:03;15.45;;;9.75;;
68250;SDS011;55066;51.560;4.642;2023-06-10T04:47:30;16.70;;;10.38;;
68250;SDS011;55066;51.560;4.642;2023-06-10T04:49:59;19.80;;;10.15;;
68250;SDS011;55066;51.560;4.642;2023-06-10T04:52:25;14.25;;;9.77;;
68250;SDS011;55066;51.560;4.642;2023-06-10T04:54:50;16.67;;;9.83;;
68250;SDS011;55066;51.560;4.642;2023-06-10T04:57:19;16.27;;;9.88;;
68250;SDS011;55066;51.560;4.642;2023-06-10T04:59:45;17.90;;;10.45;;
68250;SDS011;55066;51.560;4.642;2023-06-10T05:02:11;15.77;;;10.00;;
68250;SDS011;55066;51.560;4.642;2023-06-10T05:04:36;19.07;;;10.20;;
68250;SDS011;55066;51.560;4.642;2023-06-10T05:07:02;18.43;;;10.03;;
68250;SDS011;55066;51.560;4.642;2023-06-10T05:09:27;16.97;;;9.43;;
68250;SDS011;55066;51.560;4.642;2023-06-10T05:11:53;17.02;;;10.95;;
68250;SDS011;55066;51.560;4.642;2023-06-10T05:14:19;15.30;;;10.00;;
68250;SDS011;55066;51.560;4.642;2023-06-10T05:16:46;17.58;;;10.38;;
68250;SDS011;55066;51.560;4.642;2023-06-10T05:19:11;16.98;;;10.57;;
68250;SDS011;55066;51.560;4.642;2023-06-10T05:21:37;20.07;;;9.87;;
68250;SDS011;55066;51.560;4.642;2023-06-10T05:24:02;18.73;;;10.20;;
68250;SDS011;55066;51.560;4.642;2023-06-10T05:26:28;16.73;;;9.95;;
68250;SDS011;55066;51.560;4.642;2023-06-10T05:28:54;16.00;;;10.53;;
68250;SDS011;55066;51.560;4.642;2023-06-10T05:31:19;17.98;;;10.40;;
68250;SDS011;55066;51.560;4.642;2023-06-10T05:33:45;21.37;;;9.57;;
68250;SDS011;55066;51.560;4.642;2023-06-10T05:36:10;15.97;;;10.83;;
68250;SDS011;55066;51.560;4.642;2023-06-10T05:38:37;14.82;;;10.20;;
68250;SDS011;55066;51.560;4.642;2023-06-10T05:41:02;17.33;;;10.53;;
68250;SDS011;55066;51.560;4.642;2023-06-10T05:43:28;16.80;;;10.80;;
68250;SDS011;55066;51.560;4.642;2023-06-10T05:45:53;18.47;;;10.17;;
68250;SDS011;55066;51.560;4.642;2023-06-10T05:48:19;15.80;;;10.30;;
68250;SDS011;55066;51.560;4.642;2023-06-10T05:50:45;16.75;;;10.00;;
68250;SDS011;55066;51.560;4.642;2023-06-10T05:53:13;17.55;;;10.35;;
68250;SDS011;55066;51.560;4.642;2023-06-10T05:55:43;14.75;;;10.00;;
68250;SDS011;55066;51.560;4.642;2023-06-10T05:58:09;17.60;;;10.15;;
68250;SDS011;55066;51.560;4.642;2023-06-10T06:00:37;16.43;;;10.37;;
68250;SDS011;55066;51.560;4.642;2023-06-10T06:03:03;14.60;;;10.25;;
68250;SDS011;55066;51.560;4.642;2023-06-10T06:05:31;16.77;;;10.13;;
68250;SDS011;55066;51.560;4.642;2023-06-10T06:08:01;17.58;;;10.13;;
68250;SDS011;55066;51.560;4.642;2023-06-10T06:10:27;18.10;;;10.50;;
68250;SDS011;55066;51.560;4.642;2023-06-10T06:12:53;14.80;;;9.85;;
68250;SDS011;55066;51.560;4.642;2023-06-10T06:15:19;16.10;;;9.77;;
68250;SDS011;55066;51.560;4.642;2023-06-10T06:17:44;17.02;;;10.05;;
68250;SDS011;55066;51.560;4.642;2023-06-10T06:20:10;13.80;;;9.30;;
68250;SDS011;55066;51.560;4.642;2023-06-10T06:22:36;15.63;;;9.93;;
68250;SDS011;55066;51.560;4.642;2023-06-10T06:25:01;20.63;;;9.50;;
68250;SDS011;55066;51.560;4.642;2023-06-10T06:27:27;18.43;;;9.53;;
68250;SDS011;55066;51.560;4.642;2023-06-10T06:29:54;16.20;;;10.13;;
68250;SDS011;55066;51.560;4.642;2023-06-10T06:32:19;16.03;;;9.97;;
68250;SDS011;55066;51.560;4.642;2023-06-10T06:34:47;16.02;;;10.13;;
68250;SDS011;55066;51.560;4.642;2023-06-10T06:37:14;16.92;;;10.35;;
68250;SDS011;55066;51.560;4.642;2023-06-10T06:39:43;19.13;;;10.45;;
68250;SDS011;55066;51.560;4.642;2023-06-10T06:42:09;15.23;;;9.88;;
68250;SDS011;55066;51.560;4.642;2023-06-10T06:44:51;16.93;;;9.70;;
68250;SDS011;55066;51.560;4.642;2023-06-10T06:47:16;17.05;;;9.48;;
68250;SDS011;55066;51.560;4.642;2023-06-10T06:49:45;14.73;;;9.60;;
68250;SDS011;55066;51.560;4.642;2023-06-10T06:52:11;15.85;;;9.63;;
68250;SDS011;55066;51.560;4.642;2023-06-10T06:54:37;15.82;;;9.20;;
68250;SDS011;55066;51.560;4.642;2023-06-10T06:57:02;15.23;;;9.67;;
68250;SDS011;55066;51.560;4.642;2023-06-10T06:59:28;20.20;;;10.18;;
68250;SDS011;55066;51.560;4.642;2023-06-10T07:01:54;15.03;;;9.27;;
68250;SDS011;55066;51.560;4.642;2023-06-10T07:04:19;17.67;;;9.73;;
68250;SDS011;55066;51.560;4.642;2023-06-10T07:06:47;15.77;;;9.00;;
68250;SDS011;55066;51.560;4.642;2023-06-10T07:09:18;14.10;;;8.82;;
68250;SDS011;55066;51.560;4.642;2023-06-10T07:11:43;14.43;;;9.02;;
68250;SDS011;55066;51.560;4.642;2023-06-10T07:14:09;13.30;;;9.13;;
68250;SDS011;55066;51.560;4.642;2023-06-10T07:16:36;15.20;;;9.48;;
68250;SDS011;55066;51.560;4.642;2023-06-10T07:19:01;14.63;;;9.23;;
68250;SDS011;55066;51.560;4.642;2023-06-10T07:21:27;16.45;;;8.95;;
68250;SDS011;55066;51.560;4.642;2023-06-10T07:23:53;15.93;;;9.33;;
68250;SDS011;55066;51.560;4.642;2023-06-10T07:26:19;14.77;;;8.52;;
68250;SDS011;55066;51.560;4.642;2023-06-10T07:28:47;14.52;;;9.18;;
68250;SDS011;55066;51.560;4.642;2023-06-10T07:31:13;14.83;;;8.57;;
68250;SDS011;55066;51.560;4.642;2023-06-10T07:33:42;14.63;;;9.45;;
68250;SDS011;55066;51.560;4.642;2023-06-10T07:36:08;16.33;;;9.05;;
68250;SDS011;55066;51.560;4.642;2023-06-10T07:38:34;16.37;;;9.30;;
68250;SDS011;55066;51.560;4.642;2023-06-10T07:41:00;13.13;;;8.55;;
68250;SDS011;55066;51.560;4.642;2023-06-10T07:43:25;14.10;;;8.43;;
68250;SDS011;55066;51.560;4.642;2023-06-10T07:45:51;12.57;;;8.77;;
68250;SDS011;55066;51.560;4.642;2023-06-10T07:48:18;14.52;;;8.45;;
68250;SDS011;55066;51.560;4.642;2023-06-10T07:50:43;13.67;;;8.30;;
68250;SDS011;55066;51.560;4.642;2023-06-10T07:53:09;14.30;;;8.18;;
68250;SDS011;55066;51.560;4.642;2023-06-10T07:55:34;13.03;;;8.07;;
68250;SDS011;55066;51.560;4.642;2023-06-10T07:58:00;11.50;;;8.27;;
68250;SDS011;55066;51.560;4.642;2023-06-10T08:00:25;14.00;;;9.40;;
68250;SDS011;55066;51.560;4.642;2023-06-10T08:02:50;14.82;;;8.50;;
68250;SDS011;55066;51.560;4.642;2023-06-10T08:05:17;12.57;;;8.53;;
68250;SDS011;55066;51.560;4.642;2023-06-10T08:07:42;12.48;;;7.95;;
68250;SDS011;55066;51.560;4.642;2023-06-10T08:10:09;12.90;;;7.93;;
68250;SDS011;55066;51.560;4.642;2023-06-10T08:12:35;13.87;;;8.10;;
68250;SDS011;55066;51.560;4.642;2023-06-10T08:15:01;12.27;;;8.20;;
68250;SDS011;55066;51.560;4.642;2023-06-10T08:17:29;11.88;;;8.05;;
68250;SDS011;55066;51.560;4.642;2023-06-10T08:19:55;13.88;;;8.30;;
68250;SDS011;55066;51.560;4.642;2023-06-10T08:22:20;11.30;;;7.23;;
68250;SDS011;55066;51.560;4.642;2023-06-10T08:24:46;11.70;;;8.10;;
68250;SDS011;55066;51.560;4.642;2023-06-10T08:27:11;14.70;;;8.20;;
68250;SDS011;55066;51.560;4.642;2023-06-10T08:29:38;12.77;;;8.03;;
68250;SDS011;55066;51.560;4.642;2023-06-10T08:32:04;16.33;;;8.20;;
68250;SDS011;55066;51.560;4.642;2023-06-10T08:34:30;13.53;;;7.70;;
68250;SDS011;55066;51.560;4.642;2023-06-10T08:36:56;11.95;;;7.72;;
68250;SDS011;55066;51.560;4.642;2023-06-10T08:39:22;10.90;;;7.30;;
68250;SDS011;55066;51.560;4.642;2023-06-10T08:41:51;15.57;;;7.45;;
68250;SDS011;55066;51.560;4.642;2023-06-10T08:44:26;12.80;;;7.45;;
68250;SDS011;55066;51.560;4.642;2023-06-10T08:46:58;11.80;;;7.40;;
68250;SDS011;55066;51.560;4.642;2023-06-10T08:49:26;11.98;;;7.70;;
68250;SDS011;55066;51.560;4.642;2023-06-10T08:51:58;14.27;;;8.10;;
68250;SDS011;55066;51.560;4.642;2023-06-10T08:54:27;14.10;;;7.68;;
68250;SDS011;55066;51.560;4.642;2023-06-10T08:56:55;12.45;;;7.50;;
68250;SDS011;55066;51.560;4.642;2023-06-10T08:59:25;16.13;;;8.10;;
68250;SDS011;55066;51.560;4.642;2023-06-10T09:01:51;11.38;;;7.53;;
68250;SDS011;55066;51.560;4.642;2023-06-10T09:04:18;14.30;;;8.00;;
68250;SDS011;55066;51.560;4.642;2023-06-10T09:06:45;16.83;;;7.90;;
68250;SDS011;55066;51.560;4.642;2023-06-10T09:09:11;15.18;;;7.78;;
68250;SDS011;55066;51.560;4.642;2023-06-10T09:11:38;12.60;;;8.10;;
68250;SDS011;55066;51.560;4.642;2023-06-10T09:14:05;12.63;;;7.70;;
68250;SDS011;55066;51.560;4.642;2023-06-10T09:16:31;13.60;;;8.20;;
68250;SDS011;55066;51.560;4.642;2023-06-10T09:18:56;12.60;;;7.50;;
68250;SDS011;55066;51.560;4.642;2023-06-10T09:21:22;11.82;;;7.80;;
68250;SDS011;55066;51.560;4.642;2023-06-10T09:23:48;13.20;;;7.63;;
68250;SDS011;55066;51.560;4.642;2023-06-10T09:26:13;12.38;;;7.50;;
68250;SDS011;55066;51.560;4.642;2023-06-10T09:28:39;10.83;;;7.67;;
68250;SDS011;55066;51.560;4.642;2023-06-10T09:31:07;11.88;;;7.80;;
68250;SDS011;55066;51.560;4.642;2023-06-10T09:33:38;13.13;;;7.45;;
68250;SDS011;55066;51.560;4.642;2023-06-10T09:36:07;11.88;;;7.70;;
68250;SDS011;55066;51.560;4.642;2023-06-10T09:38:33;14.93;;;8.00;;
68250;SDS011;55066;51.560;4.642;2023-06-10T09:40:59;14.73;;;7.72;;
68250;SDS011;55066;51.560;4.642;2023-06-10T09:43:39;14.10;;;7.95;;
68250;SDS011;55066;51.560;4.642;2023-06-10T09:46:06;13.97;;;7.27;;
68250;SDS011;55066;51.560;4.642;2023-06-10T09:48:40;10.85;;;7.32;;
68250;SDS011;55066;51.560;4.642;2023-06-10T09:51:11;13.23;;;7.43;;
68250;SDS011;55066;51.560;4.642;2023-06-10T09:53:37;10.60;;;7.80;;
68250;SDS011;55066;51.560;4.642;2023-06-10T09:56:03;15.50;;;7.50;;
68250;SDS011;55066;51.560;4.642;2023-06-10T09:58:37;10.93;;;6.95;;
68250;SDS011;55066;51.560;4.642;2023-06-10T10:01:05;11.13;;;7.33;;
68250;SDS011;55066;51.560;4.642;2023-06-10T10:03:42;10.32;;;7.00;;
68250;SDS011;55066;51.560;4.642;2023-06-10T10:06:12;12.05;;;6.93;;
68250;SDS011;55066;51.560;4.642;2023-06-10T10:08:40;16.98;;;7.47;;
68250;SDS011;55066;51.560;4.642;2023-06-10T10:11:06;12.70;;;7.40;;
68250;SDS011;55066;51.560;4.642;2023-06-10T10:13:33;11.98;;;7.18;;
68250;SDS011;55066;51.560;4.642;2023-06-10T10:16:01;12.75;;;7.85;;
68250;SDS011;55066;51.560;4.642;2023-06-10T10:18:29;11.15;;;6.95;;
68250;SDS011;55066;51.560;4.642;2023-06-10T10:21:01;10.93;;;7.10;;
68250;SDS011;55066;51.560;4.642;2023-06-10T10:23:35;10.27;;;6.78;;
68250;SDS011;55066;51.560;4.642;2023-06-10T10:26:07;8.70;;;6.55;;
68250;SDS011;55066;51.560;4.642;2023-06-10T10:28:46;11.68;;;6.57;;
68250;SDS011;55066;51.560;4.642;2023-06-10T10:31:23;12.77;;;6.80;;
68250;SDS011;55066;51.560;4.642;2023-06-10T10:34:01;11.50;;;6.90;;
68250;SDS011;55066;51.560;4.642;2023-06-10T10:36:29;14.20;;;7.05;;
68250;SDS011;55066;51.560;4.642;2023-06-10T10:38:55;10.70;;;6.70;;
68250;SDS011;55066;51.560;4.642;2023-06-10T10:41:21;14.17;;;6.77;;
68250;SDS011;55066;51.560;4.642;2023-06-10T10:43:51;9.30;;;6.63;;
68250;SDS011;55066;51.560;4.642;2023-06-10T10:46:17;9.68;;;7.00;;
68250;SDS011;55066;51.560;4.642;2023-06-10T10:48:43;8.63;;;6.53;;
68250;SDS011;55066;51.560;4.642;2023-06-10T10:51:10;12.93;;;6.88;;
68250;SDS011;55066;51.560;4.642;2023-06-10T10:53:39;15.75;;;6.88;;
68250;SDS011;55066;51.560;4.642;2023-06-10T10:56:05;10.30;;;6.38;;
68250;SDS011;55066;51.560;4.642;2023-06-10T10:58:33;9.23;;;6.53;;
68250;SDS011;55066;51.560;4.642;2023-06-10T11:00:59;8.33;;;6.20;;
68250;SDS011;55066;51.560;4.642;2023-06-10T11:03:43;10.73;;;6.30;;
68250;SDS011;55066;51.560;4.642;2023-06-10T11:06:13;11.15;;;6.55;;
68250;SDS011;55066;51.560;4.642;2023-06-10T11:11:22;12.13;;;6.43;;
68250;SDS011;55066;51.560;4.642;2023-06-10T11:16:38;12.03;;;6.90;;
68250;SDS011;55066;51.560;4.642;2023-06-10T11:19:06;11.23;;;6.38;;
68250;SDS011;55066;51.560;4.642;2023-06-10T11:21:31;9.02;;;6.50;;
68250;SDS011;55066;51.560;4.642;2023-06-10T11:24:00;10.70;;;6.20;;
68250;SDS011;55066;51.560;4.642;2023-06-10T11:26:43;8.67;;;6.30;;
68250;SDS011;55066;51.560;4.642;2023-06-10T11:29:09;10.13;;;7.00;;
68250;SDS011;55066;51.560;4.642;2023-06-10T11:31:38;10.40;;;6.50;;
68250;SDS011;55066;51.560;4.642;2023-06-10T11:34:06;12.10;;;6.60;;
68250;SDS011;55066;51.560;4.642;2023-06-10T11:36:33;11.60;;;6.68;;
68250;SDS011;55066;51.560;4.642;2023-06-10T11:39:05;10.95;;;6.88;;
68250;SDS011;55066;51.560;4.642;2023-06-10T11:41:31;9.20;;;6.25;;
68250;SDS011;55066;51.560;4.642;2023-06-10T11:44:03;8.93;;;6.50;;
68250;SDS011;55066;51.560;4.642;2023-06-10T11:46:37;7.83;;;6.30;;
68250;SDS011;55066;51.560;4.642;2023-06-10T11:49:05;8.93;;;6.57;;
68250;SDS011;55066;51.560;4.642;2023-06-10T11:51:33;8.73;;;6.45;;
68250;SDS011;55066;51.560;4.642;2023-06-10T11:54:01;10.23;;;6.90;;
68250;SDS011;55066;51.560;4.642;2023-06-10T11:56:27;9.35;;;6.50;;
68250;SDS011;55066;51.560;4.642;2023-06-10T12:01:24;11.00;;;6.70;;
68250;SDS011;55066;51.560;4.642;2023-06-10T12:04:23;10.90;;;6.53;;
68250;SDS011;55066;51.560;4.642;2023-06-10T12:06:47;8.85;;;6.50;;
68250;SDS011;55066;51.560;4.642;2023-06-10T12:09:20;8.02;;;6.32;;
68250;SDS011;55066;51.560;4.642;2023-06-10T12:11:51;8.83;;;6.67;;
68250;SDS011;55066;51.560;4.642;2023-06-10T12:14:49;9.85;;;7.07;;
68250;SDS011;55066;51.560;4.642;2023-06-10T12:17:22;10.00;;;6.75;;
68250;SDS011;55066;51.560;4.642;2023-06-10T12:20:01;10.30;;;6.95;;
68250;SDS011;55066;51.560;4.642;2023-06-10T12:22:39;10.52;;;7.32;;
68250;SDS011;55066;51.560;4.642;2023-06-10T12:25:06;9.37;;;6.87;;
68250;SDS011;55066;51.560;4.642;2023-06-10T12:27:33;10.55;;;6.57;;
68250;SDS011;55066;51.560;4.642;2023-06-10T12:29:59;9.35;;;6.88;;
68250;SDS011;55066;51.560;4.642;2023-06-10T12:32:38;9.88;;;7.35;;
68250;SDS011;55066;51.560;4.642;2023-06-10T12:35:06;12.32;;;7.30;;
68250;SDS011;55066;51.560;4.642;2023-06-10T12:37:32;10.57;;;6.80;;
68250;SDS011;55066;51.560;4.642;2023-06-10T12:40:02;11.43;;;6.22;;
68250;SDS011;55066;51.560;4.642;2023-06-10T12:42:28;14.27;;;7.15;;
68250;SDS011;55066;51.560;4.642;2023-06-10T12:44:55;9.35;;;6.75;;
68250;SDS011;55066;51.560;4.642;2023-06-10T12:47:28;8.73;;;6.88;;
68250;SDS011;55066;51.560;4.642;2023-06-10T12:49:57;8.43;;;6.77;;
68250;SDS011;55066;51.560;4.642;2023-06-10T12:52:23;10.02;;;6.40;;
68250;SDS011;55066;51.560;4.642;2023-06-10T12:54:49;11.70;;;6.50;;
68250;SDS011;55066;51.560;4.642;2023-06-10T12:57:14;12.80;;;6.90;;
68250;SDS011;55066;51.560;4.642;2023-06-10T12:59:40;8.53;;;6.70;;
68250;SDS011;55066;51.560;4.642;2023-06-10T13:02:07;9.50;;;6.65;;
68250;SDS011;55066;51.560;4.642;2023-06-10T13:04:32;10.93;;;6.93;;
68250;SDS011;55066;51.560;4.642;2023-06-10T13:06:59;13.95;;;6.88;;
68250;SDS011;55066;51.560;4.642;2023-06-10T13:09:24;12.20;;;6.73;;
68250;SDS011;55066;51.560;4.642;2023-06-10T13:11:51;9.37;;;7.27;;
68250;SDS011;55066;51.560;4.642;2023-06-10T13:14:18;11.68;;;7.00;;
68250;SDS011;55066;51.560;4.642;2023-06-10T13:16:43;11.50;;;6.83;;
68250;SDS011;55066;51.560;4.642;2023-06-10T13:19:09;10.90;;;7.20;;
68250;SDS011;55066;51.560;4.642;2023-06-10T13:21:36;9.75;;;6.95;;
68250;SDS011;55066;51.560;4.642;2023-06-10T13:24:02;10.90;;;6.90;;
68250;SDS011;55066;51.560;4.642;2023-06-10T13:26:29;12.77;;;6.72;;
68250;SDS011;55066;51.560;4.642;2023-06-10T13:28:54;9.80;;;7.57;;
68250;SDS011;55066;51.560;4.642;2023-06-10T13:31:20;10.32;;;7.22;;
68250;SDS011;55066;51.560;4.642;2023-06-10T13:33:46;9.10;;;6.93;;
68250;SDS011;55066;51.560;4.642;2023-06-10T13:36:12;13.38;;;7.30;;
68250;SDS011;55066;51.560;4.642;2023-06-10T13:38:37;9.67;;;6.53;;
68250;SDS011;55066;51.560;4.642;2023-06-10T13:41:03;8.95;;;6.72;;
68250;SDS011;55066;51.560;4.642;2023-06-10T13:43:28;9.07;;;6.40;;
68250;SDS011;55066;51.560;4.642;2023-06-10T13:45:54;11.43;;;7.30;;
68250;SDS011;55066;51.560;4.642;2023-06-10T13:48:20;15.50;;;7.38;;
68250;SDS011;55066;51.560;4.642;2023-06-10T13:50:45;11.27;;;6.97;;
68250;SDS011;55066;51.560;4.642;2023-06-10T13:53:12;14.63;;;7.20;;
68250;SDS011;55066;51.560;4.642;2023-06-10T13:55:39;9.07;;;7.20;;
68250;SDS011;55066;51.560;4.642;2023-06-10T13:58:04;13.97;;;7.00;;
68250;SDS011;55066;51.560;4.642;2023-06-10T14:00:30;8.15;;;6.95;;
68250;SDS011;55066;51.560;4.642;2023-06-10T14:02:56;9.98;;;7.10;;
68250;SDS011;55066;51.560;4.642;2023-06-10T14:05:21;11.90;;;7.63;;
68250;SDS011;55066;51.560;4.642;2023-06-10T14:07:47;9.80;;;7.63;;
68250;SDS011;55066;51.560;4.642;2023-06-10T14:10:13;10.30;;;7.45;;
68250;SDS011;55066;51.560;4.642;2023-06-10T14:12:38;11.53;;;7.13;;
68250;SDS011;55066;51.560;4.642;2023-06-10T14:15:04;10.40;;;7.15;;
68250;SDS011;55066;51.560;4.642;2023-06-10T14:17:30;12.50;;;7.60;;
68250;SDS011;55066;51.560;4.642;2023-06-10T14:19:55;9.13;;;6.77;;
68250;SDS011;55066;51.560;4.642;2023-06-10T14:22:21;9.83;;;6.80;;
68250;SDS011;55066;51.560;4.642;2023-06-10T14:24:46;8.87;;;6.73;;
68250;SDS011;55066;51.560;4.642;2023-06-10T14:27:12;10.38;;;7.32;;
68250;SDS011;55066;51.560;4.642;2023-06-10T14:29:37;9.97;;;7.17;;
68250;SDS011;55066;51.560;4.642;2023-06-10T14:32:03;12.40;;;7.40;;
68250;SDS011;55066;51.560;4.642;2023-06-10T14:34:29;7.90;;;7.07;;
68250;SDS011;55066;51.560;4.642;2023-06-10T14:36:58;12.07;;;7.53;;
68250;SDS011;55066;51.560;4.642;2023-06-10T14:39:24;12.33;;;7.27;;
68250;SDS011;55066;51.560;4.642;2023-06-10T14:41:50;12.38;;;7.10;;
68250;SDS011;55066;51.560;4.642;2023-06-10T14:44:17;14.63;;;7.60;;
68250;SDS011;55066;51.560;4.642;2023-06-10T14:46:43;10.57;;;7.30;;
68250;SDS011;55066;51.560;4.642;2023-06-10T14:49:10;9.50;;;7.07;;